Harbor Emperor — WCY6430 — position and weather

sailwx.info

Track history (hours):
 
Tides and Currents Weather Stations Pressure Air Temp Water Temp Dewpoint Dewpoint Depression Visibility Wind Speed Wind Dir Waves Ship Positions

Harbor Emperor

Owner: BLUE & GOLD FLEET, SAN FRANCISCO, CA. More information available from US FCC via Universal Licensing System and Coast Guard Vessel Documentation Center.

Last reported at 2016-Sep-26 01:25 UTC. Time now 2016-Sep-26 03:42 UTC.
Position N 37°49' W 122°25'.

Length 31 m.

Type: Passenger vessel. MMSI: 366985270.

Date/timePositionNaut miles runAvg speedWind from/ knotsBaromVisibWave heightAir tempDewpointWater temp
2016-Sep-26 01:25N 37°49' W 122°25'0 0.2
2016-Sep-26 00:33N 37°49' W 122°25'3 1.0
2016-Sep-25 21:33N 37°49' W 122°28'3 0.7
2016-Sep-25 17:31N 37°49' W 122°25'0 0.0
2016-Sep-25 16:31N 37°49' W 122°25'0 0.0
2016-Sep-25 15:31N 37°49' W 122°25'0 0.0
2016-Sep-25 14:31N 37°49' W 122°25'0 0.0
2016-Sep-25 12:31N 37°49' W 122°25'0 0.0
2016-Sep-25 11:31N 37°49' W 122°25'0 0.0
2016-Sep-25 10:28N 37°49' W 122°25'0 0.0
2016-Sep-25 09:31N 37°49' W 122°25'0 0.0
2016-Sep-25 07:31N 37°49' W 122°25'0 0.0
2016-Sep-25 04:31N 37°49' W 122°25'0 0.0
2016-Sep-25 00:33N 37°49' W 122°25'0 0.0
2016-Sep-24 22:34N 37°49' W 122°25'3 2.7
2016-Sep-24 21:34N 37°49' W 122°28'0 0.1
2016-Sep-24 19:33N 37°49' W 122°28'3 2.8
2016-Sep-24 18:34N 37°49' W 122°24'0 0.3
2016-Sep-24 17:34N 37°49' W 122°25'0 0.0
2016-Sep-24 01:18N 37°49' W 122°25'0 0.1
2016-Sep-24 00:33N 37°49' W 122°25'3 0.5
2016-Sep-23 19:33N 37°49' W 122°28'3 1.3
2016-Sep-23 17:33N 37°49' W 122°25'1 0.1
2016-Sep-22 20:33N 37°50' W 122°25'1 0.1
2016-Sep-22 12:31N 37°49' W 122°25'0 0.0
2016-Sep-22 04:31N 37°49' W 122°25'0 0.0
2016-Sep-22 03:28N 37°49' W 122°25'0 0.0
2016-Sep-22 00:28N 37°49' W 122°25'0 0.0
2016-Sep-21 23:31N 37°49' W 122°25'0 0.0
2016-Sep-21 22:25N 37°49' W 122°25'0 0.0
2016-Sep-21 19:34N 37°49' W 122°25'2 0.0
2016-Sep-19 19:33N 37°49' W 122°27'2 2.4
2016-Sep-19 18:33N 37°49' W 122°24'0 0.1
2016-Sep-19 16:22N 37°49' W 122°25'6 3.1
2016-Sep-19 14:33N 37°47' W 122°18'6 5.3
2016-Sep-19 13:29N 37°49' W 122°25'0 0.0
2016-Sep-19 12:32N 37°49' W 122°25'0 0.0
2016-Sep-19 11:32N 37°49' W 122°25'0 0.0
2016-Sep-19 09:32N 37°49' W 122°25'0 0.0
2016-Sep-19 07:32N 37°49' W 122°25'0 0.0
2016-Sep-19 06:32N 37°49' W 122°25'0 0.0
2016-Sep-19 03:23N 37°49' W 122°25'0 0.0
2016-Sep-19 02:32N 37°49' W 122°25'0 0.1
2016-Sep-19 00:33N 37°49' W 122°25'2 0.5
2016-Sep-18 19:34N 37°49' W 122°28'2 0.6
2016-Sep-18 15:31N 37°49' W 122°25'0 0.0
2016-Sep-18 14:25N 37°49' W 122°25'0 0.0
2016-Sep-18 10:28N 37°49' W 122°25'0 0.0
2016-Sep-18 09:28N 37°49' W 122°25'0 0.0
2016-Sep-18 02:33N 37°49' W 122°25'0 0.2
2016-Sep-18 01:33N 37°49' W 122°25'0 0.2
2016-Sep-18 00:33N 37°49' W 122°25'0 0.1
2016-Sep-17 22:33N 37°49' W 122°25'3 3.1
2016-Sep-17 21:33N 37°49' W 122°28'3 3.0
2016-Sep-17 20:33N 37°49' W 122°25'0 0.0
2016-Sep-17 19:16N 37°49' W 122°25'0 0.0
2016-Sep-17 13:28N 37°49' W 122°25'0 0.0
2016-Sep-17 12:31N 37°49' W 122°25'0 0.0
2016-Sep-17 10:31N 37°49' W 122°25'0 0.0
2016-Sep-17 09:31N 37°49' W 122°25'0 0.0
2016-Sep-17 08:31N 37°49' W 122°25'0 0.0
2016-Sep-17 07:31N 37°49' W 122°25'0 0.0
2016-Sep-17 05:29N 37°49' W 122°25'1 1.6
2016-Sep-17 04:34N 37°48' W 122°23'1 0.4
2016-Sep-17 00:33N 37°49' W 122°25'1 0.0
2016-Sep-16 02:33N 37°49' W 122°24'  
Track history (hours):
 
Tides and Currents Weather Stations Pressure Air Temp Water Temp Dewpoint Dewpoint Depression Visibility Wind Speed Wind Dir Waves Ship Positions

Harbor Emperor

Owner: BLUE & GOLD FLEET, SAN FRANCISCO, CA. More information available from US FCC via Universal Licensing System and Coast Guard Vessel Documentation Center.

Last reported at 2016-Sep-26 01:25 UTC. Time now 2016-Sep-26 03:42 UTC.
Position N 37°49' W 122°25'.

Length 31 m.

Type: Passenger vessel. MMSI: 366985270.

Date/timePositionNaut miles runAvg speedWind from/ knotsBaromVisibWave heightAir tempDewpointWater temp
2016-Sep-26 01:25N 37°49' W 122°25'0 0.2
2016-Sep-26 00:33N 37°49' W 122°25'3 1.0
2016-Sep-25 21:33N 37°49' W 122°28'3 0.7
2016-Sep-25 17:31N 37°49' W 122°25'0 0.0
2016-Sep-25 16:31N 37°49' W 122°25'0 0.0
2016-Sep-25 15:31N 37°49' W 122°25'0 0.0
2016-Sep-25 14:31N 37°49' W 122°25'0 0.0
2016-Sep-25 12:31N 37°49' W 122°25'0 0.0
2016-Sep-25 11:31N 37°49' W 122°25'0 0.0
2016-Sep-25 10:28N 37°49' W 122°25'0 0.0
2016-Sep-25 09:31N 37°49' W 122°25'0 0.0
2016-Sep-25 07:31N 37°49' W 122°25'0 0.0
2016-Sep-25 04:31N 37°49' W 122°25'0 0.0
2016-Sep-25 00:33N 37°49' W 122°25'0 0.0
2016-Sep-24 22:34N 37°49' W 122°25'3 2.7
2016-Sep-24 21:34N 37°49' W 122°28'0 0.1
2016-Sep-24 19:33N 37°49' W 122°28'3 2.8
2016-Sep-24 18:34N 37°49' W 122°24'0 0.3
2016-Sep-24 17:34N 37°49' W 122°25'0 0.0
2016-Sep-24 01:18N 37°49' W 122°25'0 0.1
2016-Sep-24 00:33N 37°49' W 122°25'3 0.5
2016-Sep-23 19:33N 37°49' W 122°28'3 1.3
2016-Sep-23 17:33N 37°49' W 122°25'1 0.1
2016-Sep-22 20:33N 37°50' W 122°25'1 0.1
2016-Sep-22 12:31N 37°49' W 122°25'0 0.0
2016-Sep-22 04:31N 37°49' W 122°25'0 0.0
2016-Sep-22 03:28N 37°49' W 122°25'0 0.0
2016-Sep-22 00:28N 37°49' W 122°25'0 0.0
2016-Sep-21 23:31N 37°49' W 122°25'0 0.0
2016-Sep-21 22:25N 37°49' W 122°25'0 0.0
2016-Sep-21 19:34N 37°49' W 122°25'2 0.0
2016-Sep-19 19:33N 37°49' W 122°27'2 2.4
2016-Sep-19 18:33N 37°49' W 122°24'0 0.1
2016-Sep-19 16:22N 37°49' W 122°25'6 3.1
2016-Sep-19 14:33N 37°47' W 122°18'6 5.3
2016-Sep-19 13:29N 37°49' W 122°25'0 0.0
2016-Sep-19 12:32N 37°49' W 122°25'0 0.0
2016-Sep-19 11:32N 37°49' W 122°25'0 0.0
2016-Sep-19 09:32N 37°49' W 122°25'0 0.0
2016-Sep-19 07:32N 37°49' W 122°25'0 0.0
2016-Sep-19 06:32N 37°49' W 122°25'0 0.0
2016-Sep-19 03:23N 37°49' W 122°25'0 0.0
2016-Sep-19 02:32N 37°49' W 122°25'0 0.1
2016-Sep-19 00:33N 37°49' W 122°25'2 0.5
2016-Sep-18 19:34N 37°49' W 122°28'2 0.6
2016-Sep-18 15:31N 37°49' W 122°25'0 0.0
2016-Sep-18 14:25N 37°49' W 122°25'0 0.0
2016-Sep-18 10:28N 37°49' W 122°25'0 0.0
2016-Sep-18 09:28N 37°49' W 122°25'0 0.0
2016-Sep-18 02:33N 37°49' W 122°25'0 0.2
2016-Sep-18 01:33N 37°49' W 122°25'0 0.2
2016-Sep-18 00:33N 37°49' W 122°25'0 0.1
2016-Sep-17 22:33N 37°49' W 122°25'3 3.1
2016-Sep-17 21:33N 37°49' W 122°28'3 3.0
2016-Sep-17 20:33N 37°49' W 122°25'0 0.0
2016-Sep-17 19:16N 37°49' W 122°25'0 0.0
2016-Sep-17 13:28N 37°49' W 122°25'0 0.0
2016-Sep-17 12:31N 37°49' W 122°25'0 0.0
2016-Sep-17 10:31N 37°49' W 122°25'0 0.0
2016-Sep-17 09:31N 37°49' W 122°25'0 0.0
2016-Sep-17 08:31N 37°49' W 122°25'0 0.0
2016-Sep-17 07:31N 37°49' W 122°25'0 0.0
2016-Sep-17 05:29N 37°49' W 122°25'1 1.6
2016-Sep-17 04:34N 37°48' W 122°23'1 0.4
2016-Sep-17 00:33N 37°49' W 122°25'1 0.0
2016-Sep-16 02:33N 37°49' W 122°24'  

Dump ship's entire track history